Time;durP1;ratioP1;P1;durP2;ratioP2;P2;SDS_P1;SDS_P2;PMS_P1;PMS_P2;Temp;Humidity;BMP_temperature;BMP_pressure;BME280_temperature;BME280_humidity;BME280_pressure;Samples;Min_cycle;Max_cycle;Signal;HPM_P1;HPM_P2
2022/09/18 00:01:33;;;;;;;4.60;1.60;;;;;;;11.14;93.97;96893.97;4906890;29;20211;-56
2022/09/18 00:04:02;;;;;;;6.43;1.27;;;;;;;11.14;93.07;96897.44;4906609;29;20260;-55
2022/09/18 00:06:31;;;;;;;1.80;0.80;;;;;;;11.14;92.01;96886.03;4906951;29;20212;-56
2022/09/18 00:08:59;;;;;;;1.53;0.80;;;;;;;11.14;91.90;96896.63;4905587;29;20295;-56
2022/09/18 00:11:28;;;;;;;1.23;0.97;;;;;;;11.14;90.42;96893.97;4906671;29;20239;-56
2022/09/18 00:13:55;;;;;;;2.30;1.00;;;;;;;11.16;90.71;96894.69;4907355;29;20291;-56
2022/09/18 00:16:23;;;;;;;2.17;1.03;;;;;;;11.10;94.29;96889.91;4906467;29;20211;-55
2022/09/18 00:18:49;;;;;;;2.40;1.00;;;;;;;11.13;93.41;96900.22;4907135;29;20242;-54
2022/09/18 00:21:18;;;;;;;1.80;0.97;;;;;;;11.09;92.47;96890.91;4906557;29;20318;-56
2022/09/18 00:23:45;;;;;;;3.10;0.87;;;;;;;11.05;91.82;96892.16;4906680;29;20302;-56
2022/09/18 00:26:13;;;;;;;2.53;1.00;;;;;;;11.05;93.24;96884.22;4906594;29;20235;-56
2022/09/18 00:28:41;;;;;;;1.47;0.77;;;;;;;11.04;92.23;96879.91;4906702;29;20215;-56
2022/09/18 00:31:10;;;;;;;1.80;1.17;;;;;;;11.05;90.45;96873.66;4906439;29;20314;-54
2022/09/18 00:33:38;;;;;;;1.83;0.87;;;;;;;11.04;90.13;96877.25;4906096;29;21037;-56
2022/09/18 00:36:06;;;;;;;3.00;1.00;;;;;;;11.01;90.51;96877.53;4906518;29;20399;-56
2022/09/18 00:38:33;;;;;;;2.23;1.17;;;;;;;10.99;87.55;96882.97;4906663;29;20322;-56
2022/09/18 00:41:01;;;;;;;3.03;1.10;;;;;;;11.00;87.83;96876.72;4906738;29;20235;-56
2022/09/18 00:43:30;;;;;;;2.43;1.10;;;;;;;11.01;87.67;96882.84;4907565;29;20331;-56
2022/09/18 00:46:01;;;;;;;2.33;0.93;;;;;;;10.97;89.43;96883.13;4921108;29;20232;-56
2022/09/18 00:48:33;;;;;;;1.37;0.90;;;;;;;10.98;89.10;96876.03;4925600;29;20228;-57
2022/09/18 00:51:00;;;;;;;1.30;1.10;;;;;;;11.08;86.02;96873.38;4920109;29;20638;-55
2022/09/18 00:53:27;;;;;;;3.70;0.80;;;;;;;11.01;87.67;96866.97;4912683;29;20218;-56
2022/09/18 00:55:54;;;;;;;1.40;0.90;;;;;;;10.99;87.20;96867.09;4911230;29;20305;-56
2022/09/18 00:58:21;;;;;;;2.80;0.90;;;;;;;10.98;87.94;96858.31;4909076;29;20316;-54
2022/09/18 01:00:48;;;;;;;2.23;1.03;;;;;;;10.97;87.44;96858.47;4906881;29;20648;-56
2022/09/18 01:03:16;;;;;;;3.60;1.03;;;;;;;10.93;87.07;96857.91;4906980;29;20244;-55
2022/09/18 01:05:52;;;;;;;2.70;1.67;;;;;;;10.87;88.72;96853.19;4912135;29;20243;-56
2022/09/18 01:08:31;;;;;;;2.97;1.20;;;;;;;10.83;90.17;96851.78;4906639;29;20641;-55
2022/09/18 01:11:21;;;;;;;1.70;1.27;;;;;;;10.92;87.05;96858.03;4906539;29;20196;-56
2022/09/18 01:13:55;;;;;;;1.73;0.90;;;;;;;10.85;87.67;96864.84;4912280;29;20208;-55
2022/09/18 01:16:27;;;;;;;1.20;1.10;;;;;;;10.83;87.27;96862.38;4909287;29;20208;-56
2022/09/18 01:19:02;;;;;;;1.00;0.87;;;;;;;10.80;87.27;96865.31;4907915;29;20285;-57
2022/09/18 01:21:33;;;;;;;2.20;1.00;;;;;;;10.77;87.52;96862.91;4908046;29;20656;-56
2022/09/18 01:24:24;;;;;;;2.17;1.07;;;;;;;10.71;90.50;96858.19;4908679;29;20222;-55
2022/09/18 01:26:54;;;;;;;2.67;1.10;;;;;;;10.69;89.24;96861.94;4906995;29;20285;-56
2022/09/18 01:29:28;;;;;;;2.87;0.97;;;;;;;10.66;89.90;96860.41;4906044;29;20641;-57
2022/09/18 01:31:57;;;;;;;1.53;0.77;;;;;;;10.64;88.51;96872.94;4906664;29;20291;-56
2022/09/18 01:34:28;;;;;;;1.80;1.07;;;;;;;10.63;89.43;96867.78;4906486;29;20247;-56
2022/09/18 01:36:59;;;;;;;2.50;1.10;;;;;;;10.54;90.11;96869.44;4906923;29;20227;-55
2022/09/18 01:39:30;;;;;;;2.20;1.20;;;;;;;10.49;89.73;96869.00;4905197;29;20282;-56
2022/09/18 01:41:57;;;;;;;3.47;1.03;;;;;;;10.38;91.94;96872.59;4905611;29;20292;-56
2022/09/18 01:44:28;;;;;;;3.47;1.37;;;;;;;10.34;92.43;96870.38;4904955;29;20319;-56
2022/09/18 01:46:58;;;;;;;1.47;1.00;;;;;;;10.30;92.98;96863.69;4905079;29;20268;-55
2022/09/18 01:49:27;;;;;;;2.67;1.10;;;;;;;10.31;90.79;96871.47;4905058;29;20542;-56
2022/09/18 01:51:57;;;;;;;2.47;1.20;;;;;;;10.31;91.72;96871.47;4904986;29;20290;-56
2022/09/18 01:54:25;;;;;;;2.77;1.00;;;;;;;10.28;91.26;96868.28;4905592;29;20271;-55
2022/09/18 01:56:54;;;;;;;4.37;1.00;;;;;;;10.25;92.24;96861.44;4905488;29;20215;-55
2022/09/18 01:59:25;;;;;;;2.63;0.87;;;;;;;10.26;93.11;96867.59;4905180;29;20245;-54
2022/09/18 02:01:54;;;;;;;2.13;0.70;;;;;;;10.25;92.05;96857.97;4908309;29;20207;-56
2022/09/18 02:04:23;;;;;;;2.70;1.07;;;;;;;10.25;92.32;96865.91;4909004;29;20230;-56
2022/09/18 02:06:53;;;;;;;1.80;0.80;;;;;;;10.19;91.06;96856.72;4908946;29;20213;-57
2022/09/18 02:09:20;;;;;;;3.00;0.97;;;;;;;10.13;92.68;96853.75;4909265;29;20228;-56
2022/09/18 02:11:51;;;;;;;1.30;0.90;;;;;;;10.10;91.89;96856.63;4908792;29;20542;-57
2022/09/18 02:14:21;;;;;;;4.50;1.50;;;;;;;10.06;92.63;96852.63;4909038;29;20298;-57
2022/09/18 02:16:50;;;;;;;3.30;1.20;;;;;;;10.02;92.91;96862.63;4909152;29;20297;-55
2022/09/18 02:19:21;;;;;;;2.17;0.90;;;;;;;10.02;92.77;96859.97;4908520;29;20322;-56
2022/09/18 02:21:48;;;;;;;0.83;0.83;;;;;;;10.04;92.49;96851.91;4908285;29;20296;-56
2022/09/18 02:24:18;;;;;;;2.67;1.00;;;;;;;9.95;94.26;96849.09;4908518;29;20290;-57
2022/09/18 02:26:45;;;;;;;1.60;1.20;;;;;;;9.92;94.63;96854.66;4909108;29;20218;-56
2022/09/18 02:29:13;;;;;;;1.80;0.80;;;;;;;9.89;94.59;96847.00;4908330;29;20290;-56
2022/09/18 02:31:40;;;;;;;2.23;0.77;;;;;;;9.87;93.97;96858.66;4908603;29;20301;-57
2022/09/18 02:34:08;;;;;;;1.20;1.07;;;;;;;9.88;93.76;96847.13;4908796;29;20306;-56
2022/09/18 02:36:53;;;;;;;2.57;1.03;;;;;;;9.87;93.02;96850.75;4908367;29;20549;-55
2022/09/18 02:39:29;;;;;;;3.67;1.30;;;;;;;9.85;92.30;96848.22;4908216;29;20220;-54
2022/09/18 02:42:01;;;;;;;2.37;0.90;;;;;;;9.87;92.20;96858.66;4908528;29;20204;-57
2022/09/18 02:44:31;;;;;;;1.50;1.00;;;;;;;9.86;91.90;96860.47;4907605;29;20696;-56
2022/09/18 02:47:03;;;;;;;2.90;1.20;;;;;;;9.84;93.84;96858.94;4907954;29;20307;-56
2022/09/18 02:49:39;;;;;;;1.33;0.97;;;;;;;9.84;91.98;96859.78;4907957;29;20287;-57
2022/09/18 02:52:13;;;;;;;1.20;0.87;;;;;;;9.86;92.25;96849.91;4908396;29;20302;-56
2022/09/18 02:54:44;;;;;;;1.40;0.90;;;;;;;9.86;92.13;96855.19;4908281;29;20217;-55
2022/09/18 02:57:13;;;;;;;2.87;1.20;;;;;;;9.86;89.89;96849.91;4907913;29;20307;-55
2022/09/18 02:59:43;;;;;;;3.63;0.77;;;;;;;9.84;89.28;96843.94;4908179;29;20271;-57
2022/09/18 03:02:10;;;;;;;5.13;1.10;;;;;;;9.79;89.79;96850.56;4908096;29;20295;-56
2022/09/18 03:04:38;;;;;;;3.50;0.83;;;;;;;9.68;91.95;96846.22;4907772;29;20299;-56
2022/09/18 03:07:04;;;;;;;1.20;0.97;;;;;;;9.65;91.69;96848.28;4908512;29;20527;-57
2022/09/18 03:09:33;;;;;;;1.13;0.70;;;;;;;9.60;92.55;96843.38;4909365;29;20235;-56
2022/09/18 03:12:00;;;;;;;2.10;1.10;;;;;;;9.56;92.32;96851.72;4908087;29;20288;-55
2022/09/18 03:14:27;;;;;;;3.53;1.57;;;;;;;9.54;92.42;96853.66;4909827;29;20216;-57
2022/09/18 03:16:54;;;;;;;1.07;0.70;;;;;;;9.53;92.64;96852.00;4909874;29;20629;-56
2022/09/18 03:19:20;;;;;;;2.50;0.67;;;;;;;9.46;93.00;96854.28;4908018;29;20236;-56
2022/09/18 03:21:47;;;;;;;1.47;0.90;;;;;;;9.40;95.41;96862.75;4908445;29;20290;-56
2022/09/18 03:24:13;;;;;;;2.13;1.13;;;;;;;9.23;96.98;96858.91;4908283;29;20295;-57
2022/09/18 03:26:42;;;;;;;1.87;1.00;;;;;;;9.24;96.38;96862.38;4909108;29;20518;-55
2022/09/18 03:29:09;;;;;;;3.23;0.93;;;;;;;9.17;97.95;96858.59;4908894;29;20213;-56
2022/09/18 03:31:36;;;;;;;2.23;0.80;;;;;;;9.13;98.64;96859.81;4908213;29;20303;-55
2022/09/18 03:34:03;;;;;;;2.77;0.80;;;;;;;9.16;97.90;96855.13;4908187;29;20268;-56
2022/09/18 03:36:30;;;;;;;1.37;1.10;;;;;;;9.17;96.59;96861.22;4908420;29;20295;-57
2022/09/18 03:38:57;;;;;;;4.67;0.93;;;;;;;9.07;100.00;96853.22;4908735;29;20246;-56
2022/09/18 03:41:24;;;;;;;2.23;1.07;;;;;;;9.08;100.00;96861.97;4907349;29;20203;-55
2022/09/18 03:43:52;;;;;;;3.90;1.17;;;;;;;9.15;96.28;96852.59;4906752;29;20250;-55
2022/09/18 03:46:22;;;;;;;3.43;1.30;;;;;;;9.23;94.79;96860.69;4907372;29;20645;-56
2022/09/18 03:48:48;;;;;;;2.33;1.07;;;;;;;9.35;93.88;96859.69;4907134;29;20208;-56
2022/09/18 03:51:16;;;;;;;2.07;1.00;;;;;;;9.31;94.84;96863.53;4906986;29;20284;-55
2022/09/18 03:53:44;;;;;;;1.97;0.90;;;;;;;9.34;94.78;96866.75;4907178;29;20208;-56
2022/09/18 03:56:10;;;;;;;5.97;1.33;;;;;;;9.40;94.10;96870.66;4907100;29;20302;-56
2022/09/18 03:58:37;;;;;;;1.17;0.63;;;;;;;9.39;94.09;96872.47;4906777;29;20761;-57
2022/09/18 04:01:05;;;;;;;1.83;0.77;;;;;;;9.39;95.29;96866.34;4906561;29;20219;-56
2022/09/18 04:03:32;;;;;;;3.03;0.93;;;;;;;9.48;92.96;96862.94;4906488;29;20250;-56
2022/09/18 04:05:59;;;;;;;1.77;1.20;;;;;;;9.52;93.21;96856.44;4906063;29;20965;-54
2022/09/18 04:08:26;;;;;;;4.57;1.53;;;;;;;9.49;91.58;96857.50;4906766;29;20209;-56
2022/09/18 04:10:52;;;;;;;3.23;1.10;;;;;;;9.55;93.11;96866.72;4906705;29;20283;-55
2022/09/18 04:13:19;;;;;;;3.57;1.00;;;;;;;9.61;92.84;96865.34;4906147;29;20641;-56
2022/09/18 04:15:49;;;;;;;1.90;0.87;;;;;;;9.64;94.98;96865.94;4906752;29;20302;-56
2022/09/18 04:18:17;;;;;;;3.37;0.87;;;;;;;9.66;95.73;96873.72;4907021;29;20240;-56
2022/09/18 04:20:43;;;;;;;2.97;0.90;;;;;;;9.69;93.47;96874.31;4906499;29;20208;-56
2022/09/18 04:23:13;;;;;;;1.57;0.90;;;;;;;9.75;92.45;96878.22;4906903;29;20339;-56
2022/09/18 04:25:40;;;;;;;2.50;1.03;;;;;;;9.75;92.90;96868.47;4906457;29;20230;-56
2022/09/18 04:28:06;;;;;;;2.70;0.97;;;;;;;9.75;91.23;96870.28;4906615;29;20342;-56
2022/09/18 04:30:33;;;;;;;2.00;0.87;;;;;;;9.80;91.45;96876.00;4906622;29;20299;-56
2022/09/18 04:33:00;;;;;;;1.83;1.07;;;;;;;9.80;92.70;96871.56;4907055;29;20204;-56
2022/09/18 04:35:28;;;;;;;2.10;0.90;;;;;;;9.81;93.83;96870.59;4906370;29;20199;-56
2022/09/18 04:37:55;;;;;;;1.90;0.87;;;;;;;9.83;90.03;96870.47;4906686;29;20212;-57
2022/09/18 04:40:21;;;;;;;2.87;1.10;;;;;;;9.86;90.45;96875.47;4906508;29;20227;-55
2022/09/18 04:42:48;;;;;;;1.60;0.87;;;;;;;9.86;91.16;96878.97;4906284;29;20226;-56
2022/09/18 04:45:15;;;;;;;3.17;1.13;;;;;;;9.87;91.49;96871.88;4906399;29;20278;-57
2022/09/18 04:47:41;;;;;;;3.50;1.10;;;;;;;9.83;93.72;96870.47;4905987;29;20647;-56
2022/09/18 04:50:09;;;;;;;2.60;1.30;;;;;;;9.90;91.60;96863.69;4905869;29;20243;-56
2022/09/18 04:52:38;;;;;;;3.57;1.03;;;;;;;9.95;90.05;96862.28;4906365;29;20209;-55
2022/09/18 04:55:05;;;;;;;2.83;1.40;;;;;;;9.95;89.49;96862.28;4905799;29;20556;-56
2022/09/18 04:57:32;;;;;;;3.77;1.23;;;;;;;9.98;91.03;96863.84;4906203;29;20658;-56
2022/09/18 04:59:58;;;;;;;2.10;0.90;;;;;;;9.96;87.33;96861.34;4905578;29;20767;-56
2022/09/18 05:02:25;;;;;;;1.60;0.87;;;;;;;10.05;87.54;96865.00;4905863;29;20300;-56
2022/09/18 05:04:51;;;;;;;1.90;1.00;;;;;;;10.06;88.83;96866.66;4905339;29;20695;-56
2022/09/18 05:07:18;;;;;;;2.40;1.00;;;;;;;10.07;89.61;96870.97;4906043;29;20303;-55
2022/09/18 05:09:46;;;;;;;2.50;1.17;;;;;;;10.09;88.69;96881.41;4906006;29;20303;-55
2022/09/18 05:12:12;;;;;;;5.33;1.43;;;;;;;10.06;86.46;96876.41;4905422;29;20208;-56
2022/09/18 05:14:39;;;;;;;1.30;0.90;;;;;;;10.07;86.73;96876.25;4905858;29;20306;-56
2022/09/18 05:17:06;;;;;;;1.93;1.00;;;;;;;10.07;87.35;96872.75;4905524;29;20645;-56
2022/09/18 05:19:32;;;;;;;3.40;0.87;;;;;;;10.01;87.95;96871.50;4905660;29;20320;-56
2022/09/18 05:21:59;;;;;;;3.23;1.03;;;;;;;9.99;89.00;96879.56;4906203;29;20311;-57
2022/09/18 05:24:25;;;;;;;1.37;0.80;;;;;;;9.99;90.17;96884.84;4905505;29;20240;-56
2022/09/18 05:26:53;;;;;;;1.87;1.13;;;;;;;9.99;89.42;96879.56;4905754;29;20296;-60
2022/09/18 05:29:20;;;;;;;2.50;1.20;;;;;;;9.99;87.92;96876.06;4906802;29;20295;-56
2022/09/18 05:31:47;;;;;;;5.13;1.10;;;;;;;10.00;88.26;96878.59;4907501;29;20315;-55
2022/09/18 05:34:14;;;;;;;2.83;1.03;;;;;;;9.97;91.74;96886.78;4907262;29;20291;-56
2022/09/18 05:36:40;;;;;;;1.83;0.90;;;;;;;9.99;90.63;96882.19;4908380;29;20240;-55
2022/09/18 05:39:07;;;;;;;2.47;1.13;;;;;;;10.02;90.29;96884.56;4909133;29;20256;-56
2022/09/18 05:41:34;;;;;;;2.30;0.90;;;;;;;10.08;89.13;96890.31;4909222;29;20702;-56
2022/09/18 05:44:03;;;;;;;1.77;1.30;;;;;;;10.00;88.94;96894.44;4909210;29;20250;-54
2022/09/18 05:46:29;;;;;;;3.17;1.00;;;;;;;9.98;89.98;96911.41;4909427;29;20307;-55
2022/09/18 05:48:56;;;;;;;3.53;1.40;;;;;;;10.02;89.33;96909.34;4908819;29;20206;-56
2022/09/18 05:51:22;;;;;;;1.70;1.00;;;;;;;10.11;86.80;96909.38;4909569;29;20245;-55
2022/09/18 05:53:49;;;;;;;1.80;1.23;;;;;;;10.50;84.36;96915.63;4909390;29;20308;-54
2022/09/18 05:56:16;;;;;;;1.37;0.80;;;;;;;10.73;82.66;96918.88;4909242;29;20315;-55
2022/09/18 05:58:43;;;;;;;2.03;0.97;;;;;;;10.60;83.08;96924.41;4909093;29;20801;-53
2022/09/18 06:01:13;;;;;;;2.30;0.90;;;;;;;10.63;83.66;96924.13;4909030;29;20290;-56
2022/09/18 06:03:39;;;;;;;2.07;0.90;;;;;;;10.67;83.96;96933.47;4909811;29;20225;-55
2022/09/18 06:06:06;;;;;;;1.10;0.73;;;;;;;10.65;83.08;96922.22;4908968;29;20231;-57
2022/09/18 06:08:34;;;;;;;1.90;0.80;;;;;;;10.62;83.27;96925.13;4909157;29;20214;-56
2022/09/18 06:11:02;;;;;;;2.40;1.17;;;;;;;10.62;83.90;96930.44;4909158;29;20296;-56
2022/09/18 06:13:28;;;;;;;1.93;0.73;;;;;;;10.61;84.98;96933.19;4909251;29;20288;-56
2022/09/18 06:15:56;;;;;;;3.17;1.00;;;;;;;10.62;84.22;96938.34;4908793;29;20300;-55
2022/09/18 06:18:24;;;;;;;3.47;1.23;;;;;;;10.66;83.31;96950.34;4909014;29;20214;-56
2022/09/18 06:20:53;;;;;;;1.97;1.00;;;;;;;10.63;85.63;96945.31;4908684;29;20298;-55
2022/09/18 06:23:19;;;;;;;1.90;0.93;;;;;;;10.71;83.96;96942.81;4908919;29;20204;-55
2022/09/18 06:25:46;;;;;;;2.10;1.30;;;;;;;11.47;81.63;96938.53;4908396;29;20599;-56
2022/09/18 06:28:12;;;;;;;2.10;0.90;;;;;;;12.58;75.39;96944.75;4908529;29;20281;-55
2022/09/18 06:30:39;;;;;;;1.57;0.70;;;;;;;13.43;71.96;96939.00;4909094;29;20237;-56
2022/09/18 06:33:08;;;;;;;2.30;1.07;;;;;;;14.12;69.68;96938.16;4908567;29;20862;-55
2022/09/18 06:35:37;;;;;;;2.63;1.10;;;;;;;14.53;68.34;96942.72;4908419;29;20203;-56
2022/09/18 06:38:05;;;;;;;4.00;1.13;;;;;;;15.30;64.33;96936.28;4908997;29;20212;-56
2022/09/18 06:40:32;;;;;;;2.20;0.88;;;;;;;15.81;59.73;96935.13;4908392;29;20243;-54
2022/09/18 06:43:00;;;;;;;3.88;0.98;;;;;;;16.10;58.55;96932.75;4908501;29;20233;-55
2022/09/18 06:45:28;;;;;;;2.95;1.20;;;;;;;15.85;62.92;96934.63;4908310;29;20192;-56
2022/09/18 06:47:55;;;;;;;1.45;1.08;;;;;;;15.79;61.18;96935.31;4907454;29;20697;-56
2022/09/18 06:50:22;;;;;;;1.45;0.80;;;;;;;16.12;60.72;96935.25;4908605;29;20201;-55
2022/09/18 06:52:50;;;;;;;2.67;0.90;;;;;;;16.34;58.13;96931.84;4908177;29;20247;-56
2022/09/18 06:55:18;;;;;;;2.03;1.15;;;;;;;16.22;57.44;96942.06;4908051;29;20243;-55
2022/09/18 06:57:53;;;;;;;1.40;0.90;;;;;;;15.70;58.69;96941.63;4908007;29;20721;-56
2022/09/18 07:00:20;;;;;;;1.10;0.73;;;;;;;15.42;60.43;96946.44;4908269;29;20314;-55
2022/09/18 07:02:46;;;;;;;3.77;1.23;;;;;;;14.94;63.19;96936.53;4908138;29;20307;-56
2022/09/18 07:05:13;;;;;;;0.97;0.73;;;;;;;14.65;63.08;96938.78;4907711;29;20291;-54
2022/09/18 07:07:40;;;;;;;3.80;1.40;;;;;;;14.29;65.57;96937.25;4907811;29;20295;-55
2022/09/18 07:10:09;;;;;;;3.07;1.53;;;;;;;13.74;68.04;96940.25;4907509;29;20672;-55
2022/09/18 07:12:36;;;;;;;3.03;1.20;;;;;;;13.66;67.24;96939.34;4907585;29;20345;-55
2022/09/18 07:15:03;;;;;;;3.03;1.27;;;;;;;13.44;68.83;96936.19;4907678;29;20296;-55
2022/09/18 07:17:29;;;;;;;3.27;1.30;;;;;;;13.26;68.77;96930.06;4907542;29;20214;-56
2022/09/18 07:19:56;;;;;;;3.57;1.20;;;;;;;13.02;69.87;96937.78;4907369;29;20243;-55
2022/09/18 07:22:22;;;;;;;3.80;1.00;;;;;;;12.84;73.33;96927.13;4907902;29;20216;-55
2022/09/18 07:24:49;;;;;;;1.73;1.20;;;;;;;12.74;71.55;96929.03;4907450;29;20217;-54
2022/09/18 07:27:17;;;;;;;3.97;0.90;;;;;;;12.72;75.51;96930.13;4907813;29;20291;-56
2022/09/18 07:29:44;;;;;;;2.87;1.23;;;;;;;12.67;71.85;96922.63;4907770;29;20292;-56
2022/09/18 07:32:10;;;;;;;1.77;0.93;;;;;;;12.63;71.46;96931.03;4907523;29;20236;-55
2022/09/18 07:34:37;;;;;;;3.07;1.10;;;;;;;12.73;70.55;96937.97;4907772;29;20287;-54
2022/09/18 07:37:04;;;;;;;2.20;0.87;;;;;;;12.59;70.78;96933.16;4908006;29;20209;-55
2022/09/18 07:39:31;;;;;;;2.73;1.23;;;;;;;12.58;71.80;96933.28;4907964;29;20270;-55
2022/09/18 07:41:57;;;;;;;3.17;1.60;;;;;;;12.62;71.67;96927.53;4907478;29;20604;-55
2022/09/18 07:44:26;;;;;;;2.83;1.63;;;;;;;12.54;73.36;96927.44;4907026;29;20338;-56
2022/09/18 07:46:54;;;;;;;3.73;1.40;;;;;;;12.53;74.21;96936.41;4907157;29;20270;-56
2022/09/18 07:49:20;;;;;;;1.70;0.80;;;;;;;12.65;71.25;96934.38;4907225;29;20212;-56
2022/09/18 07:51:47;;;;;;;1.47;0.80;;;;;;;12.60;70.71;96932.19;4908507;29;20208;-56
2022/09/18 07:54:14;;;;;;;1.80;0.87;;;;;;;12.47;71.56;96931.66;4908153;29;21041;-55
2022/09/18 07:56:41;;;;;;;2.97;1.17;;;;;;;12.61;70.52;96938.31;4907955;29;20241;-55
2022/09/18 07:59:08;;;;;;;2.43;0.87;;;;;;;12.59;69.92;96946.41;4906251;29;20212;-56
2022/09/18 08:01:36;;;;;;;1.63;0.90;;;;;;;12.59;70.42;96941.09;4906717;29;20205;-55
2022/09/18 08:04:05;;;;;;;1.97;1.07;;;;;;;12.62;70.39;96942.63;4907070;29;20211;-55
2022/09/18 08:06:32;;;;;;;1.80;0.73;;;;;;;12.62;70.88;96932.84;4907234;29;20228;-56
2022/09/18 08:08:59;;;;;;;1.87;0.90;;;;;;;12.52;70.55;96941.84;4906650;29;20295;-56
2022/09/18 08:11:25;;;;;;;2.03;1.10;;;;;;;12.62;71.04;96940.81;4907255;29;20244;-56
2022/09/18 08:13:52;;;;;;;2.00;0.93;;;;;;;12.71;72.04;96937.28;4907217;29;20204;-54
2022/09/18 08:16:20;;;;;;;3.73;0.90;;;;;;;12.78;71.18;96935.69;4907785;29;20236;-56
2022/09/18 08:18:48;;;;;;;3.50;0.87;;;;;;;12.82;70.09;96942.34;4908000;29;20218;-55
2022/09/18 08:21:15;;;;;;;5.80;1.33;;;;;;;12.93;70.03;96939.50;4907620;29;20216;-54
2022/09/18 08:23:41;;;;;;;0.87;0.87;;;;;;;12.97;69.36;96940.88;4907745;29;20303;-55
2022/09/18 08:26:08;;;;;;;2.07;1.03;;;;;;;12.94;70.09;96946.47;4907398;29;20200;-56
2022/09/18 08:28:35;;;;;;;3.23;1.13;;;;;;;13.07;69.20;96950.59;4907877;29;20529;-53
2022/09/18 08:31:01;;;;;;;1.73;1.10;;;;;;;12.93;69.75;96946.66;4907770;29;20546;-56
2022/09/18 08:33:28;;;;;;;2.63;1.00;;;;;;;13.02;70.14;96956.34;4907324;29;20299;-55
2022/09/18 08:35:56;;;;;;;3.00;1.00;;;;;;;13.00;69.88;96950.38;4907143;29;20585;-54
2022/09/18 08:38:22;;;;;;;1.57;0.97;;;;;;;13.08;68.51;96950.44;4906543;29;20685;-56
2022/09/18 08:40:58;;;;;;;2.93;0.80;;;;;;;13.26;69.47;96939.84;4907013;29;20336;-55
2022/09/18 08:43:38;;;;;;;2.97;0.83;;;;;;;13.43;67.16;96946.97;4907082;29;20247;-55
2022/09/18 08:46:08;;;;;;;3.27;1.10;;;;;;;13.62;67.69;96945.97;4907127;29;20228;-55
2022/09/18 08:48:37;;;;;;;1.17;1.07;;;;;;;13.78;67.38;96936.28;4908324;29;20295;-55
2022/09/18 08:51:12;;;;;;;1.53;0.70;;;;;;;13.89;66.73;96938.69;4907258;29;20397;-55
2022/09/18 08:53:42;;;;;;;1.90;0.70;;;;;;;14.08;66.90;96942.13;4890495;29;20275;-55
2022/09/18 08:56:13;;;;;;;2.83;1.20;;;;;;;14.35;64.87;96939.28;4906307;29;20209;-55
2022/09/18 08:58:44;;;;;;;1.70;0.80;;;;;;;14.54;63.61;96938.22;4907128;29;20279;-57
2022/09/18 09:01:15;;;;;;;3.27;0.87;;;;;;;14.85;65.15;96931.34;4907695;29;20295;-56
2022/09/18 09:03:49;;;;;;;2.30;0.80;;;;;;;15.05;60.11;96927.41;4906950;29;20598;-57
2022/09/18 09:06:29;;;;;;;4.13;0.83;;;;;;;15.21;59.76;96926.59;4907982;29;20264;-56
2022/09/18 09:09:09;;;;;;;2.20;0.97;;;;;;;15.31;60.80;96924.59;4909770;29;20298;-55
2022/09/18 09:11:42;;;;;;;0.93;0.73;;;;;;;15.47;60.75;96915.78;4909678;29;20241;-56
2022/09/18 09:14:38;;;;;;;2.50;0.90;;;;;;;15.64;60.29;96920.97;4909834;29;20268;-55
2022/09/18 09:17:13;;;;;;;2.20;1.00;;;;;;;15.78;60.38;96927.47;4910819;29;20228;-56
2022/09/18 09:19:42;;;;;;;2.93;0.90;;;;;;;15.79;60.39;96921.97;4910428;29;20243;-56
2022/09/18 09:22:17;;;;;;;1.35;0.57;;;;;;;15.78;59.63;96930.97;4910406;29;20314;-55
2022/09/18 09:24:54;;;;;;;1.53;0.70;;;;;;;15.75;58.28;96914.47;4909980;29;20207;-56
2022/09/18 09:27:24;;;;;;;2.80;0.83;;;;;;;16.09;58.44;96916.91;4909064;29;20294;-59
2022/09/18 09:29:57;;;;;;;3.70;1.07;;;;;;;16.12;59.42;96920.06;4910129;29;20292;-57
2022/09/18 09:32:28;;;;;;;3.30;1.10;;;;;;;16.35;58.71;96923.66;4907796;29;20231;-55
2022/09/18 09:34:58;;;;;;;2.22;0.90;;;;;;;16.42;58.92;96907.78;4906625;29;20290;-57
2022/09/18 09:37:34;;;;;;;2.58;0.70;;;;;;;16.54;54.83;96906.44;4906621;29;20204;-55
2022/09/18 09:40:05;;;;;;;1.35;0.90;;;;;;;16.77;55.34;96912.69;4908198;29;20323;-55
2022/09/18 09:42:35;;;;;;;4.07;0.93;;;;;;;16.89;55.67;96911.28;4905783;29;20216;-54
2022/09/18 09:45:08;;;;;;;1.63;0.52;;;;;;;17.37;54.70;96903.94;4904986;29;20273;-55
2022/09/18 09:47:41;;;;;;;1.60;0.70;;;;;;;17.54;52.69;96905.47;4905823;29;20208;-54
2022/09/18 09:50:20;;;;;;;0.98;0.60;;;;;;;17.87;56.44;96909.56;4905687;29;20200;-54
2022/09/18 09:52:48;;;;;;;1.15;0.65;;;;;;;17.85;54.29;96908.09;4905465;29;20291;-54
2022/09/18 09:55:21;;;;;;;1.75;0.75;;;;;;;17.48;56.39;96906.19;4905227;29;20307;-55
2022/09/18 09:57:54;;;;;;;0.95;0.68;;;;;;;17.27;55.00;96898.84;4906115;29;20450;-54
2022/09/18 10:00:22;;;;;;;1.20;0.90;;;;;;;17.29;55.09;96890.63;4906931;29;20311;-54
2022/09/18 10:03:04;;;;;;;2.10;1.50;;;;;;;17.49;54.55;96897.16;4906071;29;20224;-54
2022/09/18 10:05:35;;;;;;;1.73;0.73;;;;;;;17.59;56.40;96897.78;4906014;29;20212;-63
2022/09/18 10:08:06;;;;;;;1.58;1.10;;;;;;;17.82;54.64;96882.50;4906108;29;20208;-55
2022/09/18 10:10:39;;;;;;;0.70;0.70;;;;;;;17.96;53.72;96885.41;4905781;29;20204;-54
2022/09/18 10:13:12;;;;;;;2.30;1.90;;;;;;;18.26;51.88;96890.59;4906047;29;20226;-54
2022/09/18 10:15:39;;;;;;;0.98;0.60;;;;;;;18.24;50.60;96886.44;4907127;29;20334;-56
2022/09/18 10:18:13;;;;;;;2.03;0.90;;;;;;;18.43;51.41;96883.19;4910152;29;21345;-56
2022/09/18 10:20:40;;;;;;;1.35;0.60;;;;;;;18.39;52.21;96884.56;4906927;29;20303;-55
2022/09/18 10:23:12;;;;;;;1.25;0.60;;;;;;;18.20;49.95;96885.13;4909394;29;20212;-53
2022/09/18 10:25:42;;;;;;;2.70;0.90;;;;;;;18.01;50.68;96880.31;4908751;29;20234;-55
2022/09/18 10:28:12;;;;;;;2.28;0.60;;;;;;;17.82;51.49;96871.81;4908698;29;20237;-55
2022/09/18 10:30:52;;;;;;;1.27;0.70;;;;;;;18.20;53.14;96887.81;4908416;29;20642;-55
2022/09/18 10:33:30;;;;;;;2.17;0.75;;;;;;;18.17;50.53;96869.44;4909367;29;20207;-54
2022/09/18 10:36:01;;;;;;;1.88;0.65;;;;;;;17.96;49.89;96880.06;4909372;29;20240;-60
2022/09/18 10:38:36;;;;;;;0.75;0.63;;;;;;;18.17;49.93;96880.16;4908652;29;20701;-53
2022/09/18 10:41:18;;;;;;;1.30;0.80;;;;;;;18.21;50.00;96884.94;4907852;29;20657;-55
2022/09/18 10:43:56;;;;;;;1.92;0.65;;;;;;;17.88;51.06;96871.09;4908402;29;20247;-55
2022/09/18 10:46:25;;;;;;;1.73;0.90;;;;;;;17.69;49.16;96876.97;4908517;29;20602;-56
2022/09/18 10:48:52;;;;;;;3.10;1.17;;;;;;;17.89;51.79;96872.72;4908661;29;20664;-54
2022/09/18 10:51:20;;;;;;;1.15;0.60;;;;;;;17.80;49.12;96863.16;4908209;29;20674;-54
2022/09/18 10:54:00;;;;;;;1.02;0.70;;;;;;;18.15;50.97;96853.56;4908252;29;20231;-55
2022/09/18 10:56:27;;;;;;;1.15;1.05;;;;;;;18.44;49.55;96855.38;4907744;29;20205;-54
2022/09/18 10:58:54;;;;;;;0.80;0.60;;;;;;;18.58;51.97;96843.84;4908296;29;20844;-54
2022/09/18 11:01:21;;;;;;;2.60;0.68;;;;;;;18.94;50.08;96840.34;4907873;29;20311;-53
2022/09/18 11:03:49;;;;;;;2.30;0.60;;;;;;;19.01;50.45;96842.06;4908326;29;20235;-55
2022/09/18 11:06:17;;;;;;;1.48;0.73;;;;;;;19.51;51.50;96841.13;4907657;29;20212;-53
2022/09/18 11:08:47;;;;;;;1.67;0.65;;;;;;;19.11;50.25;96841.75;4907781;29;20276;-54
2022/09/18 11:11:22;;;;;;;1.65;0.80;;;;;;;18.81;49.53;96846.41;4907675;29;20200;-54
2022/09/18 11:13:52;;;;;;;2.55;0.60;;;;;;;18.75;50.43;96845.28;4907198;29;20203;-55
2022/09/18 11:16:23;;;;;;;1.05;0.68;;;;;;;18.38;50.14;96845.44;4907287;29;20235;-54
2022/09/18 11:19:01;;;;;;;1.58;1.00;;;;;;;18.37;48.34;96843.78;4907584;29;20248;-53
2022/09/18 11:21:28;;;;;;;1.70;0.68;;;;;;;17.92;50.72;96831.44;4907560;29;20347;-54
2022/09/18 11:24:02;;;;;;;1.45;0.80;;;;;;;17.42;51.77;96834.72;4909085;29;20299;-54
2022/09/18 11:26:31;;;;;;;0.90;0.57;;;;;;;16.87;52.40;96825.13;4908026;29;20654;-55
2022/09/18 11:29:01;;;;;;;1.25;0.90;;;;;;;16.64;51.63;96816.28;4907581;29;20614;-55
2022/09/18 11:31:37;;;;;;;0.68;0.55;;;;;;;16.97;54.45;96821.41;4907556;29;20201;-55
2022/09/18 11:34:04;;;;;;;0.98;0.60;;;;;;;17.17;53.04;96812.72;4906879;29;20489;-52
2022/09/18 11:36:32;;;;;;;0.55;0.50;;;;;;;17.22;52.99;96810.31;4907407;29;20315;-53
2022/09/18 11:39:00;;;;;;;1.27;0.82;;;;;;;17.49;53.61;96810.78;4907457;29;20224;-55
2022/09/18 11:41:36;;;;;;;1.33;0.70;;;;;;;17.71;53.43;96800.03;4906819;29;20300;-55
2022/09/18 11:44:04;;;;;;;1.77;0.80;;;;;;;18.01;52.35;96802.72;4907158;29;20319;-55
2022/09/18 11:46:40;;;;;;;1.00;0.65;;;;;;;18.21;51.03;96803.81;4907074;29;20299;-55